createdAt,value
2023-03-05T00:01:25.313Z,2.69
2023-03-05T00:03:54.415Z,2.69
2023-03-05T00:06:23.890Z,2.67
2023-03-05T00:08:53.555Z,2.67
2023-03-05T00:11:23.106Z,2.67
2023-03-05T00:13:52.645Z,2.68
2023-03-05T00:16:21.390Z,2.68
2023-03-05T00:18:50.004Z,2.66
2023-03-05T00:21:22.191Z,2.66
2023-03-05T00:23:51.317Z,2.66
2023-03-05T00:26:19.935Z,2.66
2023-03-05T00:28:51.767Z,2.66
2023-03-05T00:31:21.149Z,2.65
2023-03-05T00:33:54.164Z,2.65
2023-03-05T00:36:22.738Z,2.63
2023-03-05T00:38:50.770Z,2.62
2023-03-05T00:41:19.168Z,2.61
2023-03-05T00:43:48.354Z,2.59
2023-03-05T00:46:18.066Z,2.59
2023-03-05T00:48:46.259Z,2.58
2023-03-05T00:51:14.501Z,2.59
2023-03-05T00:53:42.737Z,2.59
2023-03-05T00:56:10.739Z,2.59
2023-03-05T00:58:39.539Z,2.57
2023-03-05T01:01:08.455Z,2.56
2023-03-05T01:03:38.259Z,2.56
2023-03-05T01:06:08.025Z,2.55
2023-03-05T01:08:36.490Z,2.55
2023-03-05T01:11:04.919Z,2.53
2023-03-05T01:13:33.446Z,2.53
2023-03-05T01:16:01.911Z,2.55
2023-03-05T01:18:30.039Z,2.54
2023-03-05T01:20:59.540Z,2.52
2023-03-05T01:23:28.210Z,2.54
2023-03-05T01:25:56.763Z,2.53
2023-03-05T01:28:25.371Z,2.53
2023-03-05T01:30:53.539Z,2.53
2023-03-05T01:33:21.835Z,2.50
2023-03-05T01:35:50.873Z,2.52
2023-03-05T01:38:20.562Z,2.52
2023-03-05T01:40:48.799Z,2.51
2023-03-05T01:43:25.153Z,2.51
2023-03-05T01:46:26.767Z,2.51
2023-03-05T01:48:56.927Z,2.49
2023-03-05T01:51:27.159Z,2.48
2023-03-05T01:53:58.313Z,2.46
2023-03-05T01:56:27.272Z,2.47
2023-03-05T01:59:03.429Z,2.45
2023-03-05T02:01:32.939Z,2.45
2023-03-05T02:04:01.836Z,2.42
2023-03-05T02:06:30.439Z,2.44
2023-03-05T02:09:01.313Z,2.43
2023-03-05T02:11:30.534Z,2.42
2023-03-05T02:13:59.232Z,2.41
2023-03-05T02:16:27.966Z,2.39
2023-03-05T02:18:56.310Z,2.37
2023-03-05T02:21:38.461Z,2.34
2023-03-05T02:24:07.258Z,2.34
2023-03-05T02:26:35.383Z,2.31
2023-03-05T02:29:04.349Z,2.30
2023-03-05T02:31:32.504Z,2.29
2023-03-05T02:34:01.984Z,2.31
2023-03-05T02:36:31.985Z,2.32
2023-03-05T02:39:00.372Z,2.30
2023-03-05T02:41:28.926Z,2.33
2023-03-05T02:43:58.841Z,2.33
2023-03-05T02:46:27.158Z,2.32
2023-03-05T02:48:55.828Z,2.30
2023-03-05T02:51:24.422Z,2.31
2023-03-05T02:53:54.358Z,2.32
2023-03-05T02:56:24.334Z,2.32
2023-03-05T02:58:52.723Z,2.29
2023-03-05T03:01:21.323Z,2.27
2023-03-05T03:03:49.480Z,2.28
2023-03-05T03:06:17.792Z,2.28
2023-03-05T03:08:46.161Z,2.29
2023-03-05T03:11:15.643Z,2.28
2023-03-05T03:13:43.811Z,2.28
2023-03-05T03:16:13.244Z,2.26
2023-03-05T03:18:41.602Z,2.21
2023-03-05T03:21:09.697Z,2.21
2023-03-05T03:23:37.760Z,2.22
2023-03-05T03:26:06.246Z,2.16
2023-03-05T03:28:35.743Z,2.18
2023-03-05T03:31:04.170Z,2.19
2023-03-05T03:33:32.960Z,2.18
2023-03-05T03:36:01.079Z,2.13
2023-03-05T03:38:29.216Z,2.15
2023-03-05T03:40:57.369Z,2.12
2023-03-05T03:43:25.737Z,2.14
2023-03-05T03:45:55.368Z,2.11
2023-03-05T03:48:23.438Z,2.10
2023-03-05T03:50:51.467Z,2.10
2023-03-05T03:53:19.536Z,2.03
2023-03-05T03:55:47.677Z,2.06
2023-03-05T03:58:15.805Z,2.05
2023-03-05T04:00:43.976Z,2.05
2023-03-05T04:03:13.542Z,2.03
2023-03-05T04:05:41.618Z,2.04
2023-03-05T04:08:12.216Z,2.03
2023-03-05T04:10:41.547Z,2.00
2023-03-05T04:13:09.895Z,1.98
2023-03-05T04:15:38.086Z,1.98
2023-03-05T04:18:06.413Z,1.97
2023-03-05T04:20:35.833Z,1.97
2023-03-05T04:23:04.195Z,1.96
2023-03-05T04:25:32.301Z,1.95
2023-03-05T04:28:00.791Z,1.96
2023-03-05T04:30:28.906Z,1.94
2023-03-05T04:32:57.162Z,1.93
2023-03-05T04:35:25.730Z,1.92
2023-03-05T04:37:55.423Z,1.95
2023-03-05T04:40:24.122Z,1.92
2023-03-05T04:42:52.198Z,1.94
2023-03-05T04:45:20.635Z,1.89
2023-03-05T04:47:48.789Z,1.92
2023-03-05T04:50:16.922Z,1.94
2023-03-05T04:52:46.468Z,1.96
2023-03-05T04:55:17.169Z,1.97
2023-03-05T04:57:45.380Z,1.97
2023-03-05T05:00:14.997Z,1.95
2023-03-05T05:02:43.774Z,1.97
2023-03-05T05:05:13.325Z,1.97
2023-03-05T05:07:41.743Z,1.97
2023-03-05T05:10:11.013Z,1.90
2023-03-05T05:12:40.953Z,1.97
2023-03-05T05:15:09.819Z,1.96
2023-03-05T05:17:38.239Z,1.94
2023-03-05T05:20:07.895Z,1.95
2023-03-05T05:22:36.437Z,1.97
2023-03-05T05:25:05.230Z,1.98
2023-03-05T05:27:33.424Z,1.99
2023-03-05T05:30:04.196Z,1.98
2023-03-05T05:32:32.547Z,1.98
2023-03-05T05:35:00.894Z,1.99
2023-03-05T05:37:29.038Z,1.99
2023-03-05T05:39:57.150Z,1.99
2023-03-05T05:42:26.092Z,1.93
2023-03-05T05:44:55.577Z,1.92
2023-03-05T05:47:25.081Z,1.88
2023-03-05T05:49:53.356Z,1.90
2023-03-05T05:52:21.528Z,1.90
2023-03-05T05:54:49.647Z,1.87
2023-03-05T05:57:17.716Z,1.87
2023-03-05T05:59:45.897Z,1.90
2023-03-05T06:02:14.401Z,1.87
2023-03-05T06:04:43.930Z,1.85
2023-03-05T06:07:11.986Z,1.86
2023-03-05T06:09:40.200Z,1.86
2023-03-05T06:12:08.907Z,1.86
2023-03-05T06:14:37.136Z,1.88
2023-03-05T06:17:05.287Z,1.88
2023-03-05T06:19:33.535Z,1.87
2023-03-05T06:22:03.052Z,1.87
2023-03-05T06:24:31.126Z,1.85
2023-03-05T06:26:59.402Z,1.81
2023-03-05T06:29:27.678Z,1.82
2023-03-05T06:31:55.781Z,1.82
2023-03-05T06:34:24.048Z,1.82
2023-03-05T06:36:52.181Z,1.84
2023-03-05T06:39:21.715Z,1.82
2023-03-05T06:41:51.815Z,1.82
2023-03-05T06:44:20.159Z,1.82
2023-03-05T06:46:48.214Z,1.82
2023-03-05T06:49:16.407Z,1.85
2023-03-05T06:51:44.943Z,1.85
2023-03-05T06:54:14.912Z,1.78
2023-03-05T06:56:45.498Z,1.81
2023-03-05T06:59:15.073Z,1.83
2023-03-05T07:01:43.197Z,1.82
2023-03-05T07:04:12.735Z,1.79
2023-03-05T07:06:42.235Z,1.82
2023-03-05T07:09:12.294Z,1.81
2023-03-05T07:11:40.746Z,1.83
2023-03-05T07:14:10.323Z,1.84
2023-03-05T07:16:38.586Z,1.85
2023-03-05T07:19:08.098Z,1.88
2023-03-05T07:21:39.507Z,1.86
2023-03-05T07:24:08.811Z,1.88
2023-03-05T07:26:36.969Z,1.90
2023-03-05T07:29:05.031Z,1.89
2023-03-05T07:31:34.792Z,1.88
2023-03-05T07:34:03.594Z,1.89
2023-03-05T07:36:31.955Z,1.94
2023-03-05T07:39:00.136Z,1.96
2023-03-05T07:41:28.182Z,1.99
2023-03-05T07:43:56.568Z,1.96
2023-03-05T07:46:26.532Z,2.01
2023-03-05T07:48:56.708Z,1.98
2023-03-05T07:51:25.370Z,2.00
2023-03-05T07:53:54.174Z,2.06
2023-03-05T07:56:22.937Z,2.11
2023-03-05T07:58:51.083Z,2.13
2023-03-05T08:01:19.550Z,2.20
2023-03-05T08:03:47.716Z,2.27
2023-03-05T08:06:17.495Z,2.32
2023-03-05T08:08:45.614Z,2.35
2023-03-05T08:11:14.892Z,2.40
2023-03-05T08:13:43.560Z,2.44
2023-03-05T08:16:13.214Z,2.48
2023-03-05T08:18:41.494Z,2.51
2023-03-05T08:21:17.763Z,2.60
2023-03-05T08:23:45.876Z,2.65
2023-03-05T08:26:15.598Z,2.65
2023-03-05T08:28:43.746Z,2.74
2023-03-05T08:31:12.383Z,2.84
2023-03-05T08:33:40.874Z,2.93
2023-03-05T08:36:09.892Z,3.07
2023-03-05T08:38:39.424Z,3.25
2023-03-05T08:41:09.064Z,3.37
2023-03-05T08:43:37.525Z,3.41
2023-03-05T08:46:06.255Z,3.68
2023-03-05T08:48:34.900Z,3.84
2023-03-05T08:51:06.161Z,3.97
2023-03-05T08:53:34.305Z,4.17
2023-03-05T08:56:03.971Z,4.32
2023-03-05T08:58:32.677Z,4.42
2023-03-05T09:01:01.090Z,4.59
2023-03-05T09:03:29.334Z,4.68
2023-03-05T09:05:59.977Z,4.75
2023-03-05T09:08:28.195Z,4.75
2023-03-05T09:10:56.371Z,4.81
2023-03-05T09:13:26.129Z,4.89
2023-03-05T09:15:57.923Z,4.92
2023-03-05T09:18:26.830Z,4.92
2023-03-05T09:20:55.111Z,4.90
2023-03-05T09:23:23.189Z,5.01
2023-03-05T09:25:51.954Z,5.14
2023-03-05T09:28:20.186Z,5.13
2023-03-05T09:30:49.669Z,5.33
2023-03-05T09:33:19.660Z,5.43
2023-03-05T09:35:48.821Z,5.57
2023-03-05T09:38:19.122Z,5.66
2023-03-05T09:40:50.456Z,5.70
2023-03-05T09:43:27.171Z,5.69
2023-03-05T09:46:03.496Z,5.72
2023-03-05T09:48:40.122Z,5.84
2023-03-05T09:51:12.909Z,5.95
2023-03-05T09:53:46.501Z,6.07
2023-03-05T09:56:16.720Z,6.20
2023-03-05T09:58:48.062Z,6.11
2023-03-05T10:01:20.148Z,6.27
2023-03-05T10:03:54.740Z,6.53
2023-03-05T10:06:24.538Z,6.98
2023-03-05T10:08:55.109Z,7.35
2023-03-05T10:11:44.183Z,7.68
2023-03-05T10:14:15.362Z,8.38
2023-03-05T10:16:58.319Z,9.25
2023-03-05T10:19:37.989Z,9.94
2023-03-05T10:22:11.534Z,10.21
2023-03-05T10:24:42.826Z,10.80
2023-03-05T10:27:15.407Z,11.32
2023-03-05T10:29:53.774Z,11.63
2023-03-05T10:32:26.280Z,12.12
2023-03-05T10:35:05.076Z,12.05
2023-03-05T10:37:38.777Z,12.37
2023-03-05T10:40:15.634Z,12.52
2023-03-05T10:42:48.336Z,12.52
2023-03-05T10:45:18.569Z,12.69
2023-03-05T10:47:49.981Z,12.83
2023-03-05T10:50:20.379Z,13.30
2023-03-05T10:52:51.881Z,13.60
2023-03-05T10:55:21.362Z,13.72
2023-03-05T10:57:49.766Z,14.11
2023-03-05T11:00:19.608Z,14.69
2023-03-05T11:02:55.367Z,14.67
2023-03-05T11:05:53.628Z,14.79
2023-03-05T11:08:28.047Z,14.46
2023-03-05T11:11:04.210Z,14.41
2023-03-05T11:13:32.972Z,14.11
2023-03-05T11:16:01.872Z,13.68
2023-03-05T11:18:34.391Z,13.30
2023-03-05T11:21:12.131Z,12.85
2023-03-05T11:23:40.253Z,12.56
2023-03-05T11:26:19.131Z,12.10
2023-03-05T11:28:57.678Z,11.83
2023-03-05T11:31:26.920Z,11.38
2023-03-05T11:33:56.474Z,11.18
2023-03-05T11:36:27.271Z,11.03
2023-03-05T11:38:57.060Z,10.91
2023-03-05T11:41:28.240Z,10.44
2023-03-05T11:43:57.600Z,10.40
2023-03-05T11:46:26.984Z,10.09
2023-03-05T11:48:56.783Z,9.92
2023-03-05T11:51:32.941Z,9.84
2023-03-05T11:54:07.349Z,9.49
2023-03-05T11:56:37.895Z,9.43
2023-03-05T11:59:08.575Z,9.42
2023-03-05T12:01:41.898Z,9.33
2023-03-05T12:04:10.228Z,9.33
2023-03-05T12:06:44.996Z,9.30
2023-03-05T12:09:17.483Z,9.03
2023-03-05T12:11:46.297Z,8.84
2023-03-05T12:14:19.399Z,8.77
2023-03-05T12:16:49.800Z,8.68
2023-03-05T12:19:33.040Z,8.65
2023-03-05T12:22:03.209Z,8.81
2023-03-05T12:24:37.423Z,8.94
2023-03-05T12:27:10.485Z,8.94
2023-03-05T12:29:46.411Z,8.75
2023-03-05T12:32:35.754Z,8.92
2023-03-05T12:35:05.219Z,9.03
2023-03-05T12:37:51.946Z,9.16
2023-03-05T12:40:26.311Z,9.20
2023-03-05T12:42:56.089Z,9.39
2023-03-05T12:45:35.725Z,9.40
2023-03-05T12:48:22.769Z,9.38
2023-03-05T12:50:52.863Z,9.39
2023-03-05T12:53:21.778Z,9.40
2023-03-05T12:55:58.248Z,9.44
2023-03-05T12:58:35.275Z,9.54
2023-03-05T13:01:06.067Z,9.64
2023-03-05T13:03:36.660Z,9.26
2023-03-05T13:06:06.752Z,9.51
2023-03-05T13:08:38.004Z,9.44
2023-03-05T13:11:09.707Z,9.37
2023-03-05T13:13:39.946Z,9.37
2023-03-05T13:16:17.672Z,9.29
2023-03-05T13:18:48.600Z,9.51
2023-03-05T13:21:18.153Z,9.47
2023-03-05T13:23:58.422Z,9.81
2023-03-05T13:26:29.934Z,9.72
2023-03-05T13:29:05.392Z,10.05
2023-03-05T13:31:34.981Z,10.27
2023-03-05T13:34:09.091Z,10.31
2023-03-05T13:36:40.734Z,10.43
2023-03-05T13:39:19.060Z,10.47
2023-03-05T13:41:58.481Z,10.35
2023-03-05T13:44:26.615Z,10.21
2023-03-05T13:46:54.650Z,10.21
2023-03-05T13:49:23.677Z,10.08
2023-03-05T13:51:52.730Z,10.08
2023-03-05T13:54:21.324Z,10.04
2023-03-05T13:56:53.186Z,10.05
2023-03-05T13:59:24.560Z,10.04
2023-03-05T14:01:54.021Z,10.18
2023-03-05T14:04:23.258Z,10.12
2023-03-05T14:06:53.301Z,10.08
2023-03-05T14:09:23.154Z,9.86
2023-03-05T14:11:58.857Z,9.67
2023-03-05T14:14:31.069Z,9.56
2023-03-05T14:17:16.000Z,9.43
2023-03-05T14:19:44.449Z,9.21
2023-03-05T14:22:27.371Z,9.23
2023-03-05T14:24:55.433Z,9.06
2023-03-05T14:27:24.665Z,9.06
2023-03-05T14:29:54.811Z,8.99
2023-03-05T14:32:26.732Z,9.01
2023-03-05T14:34:57.680Z,9.02
2023-03-05T14:37:30.470Z,9.12
2023-03-05T14:39:59.589Z,9.24
2023-03-05T14:42:30.779Z,9.28
2023-03-05T14:45:02.477Z,9.45
2023-03-05T14:47:31.391Z,9.45
2023-03-05T14:49:59.503Z,9.45
2023-03-05T14:52:28.360Z,9.50
2023-03-05T14:54:56.465Z,9.37
2023-03-05T14:57:26.971Z,9.40
2023-03-05T14:59:55.776Z,9.37
2023-03-05T15:02:26.526Z,9.34
2023-03-05T15:04:55.377Z,9.37
2023-03-05T15:07:26.191Z,9.28
2023-03-05T15:09:54.341Z,9.30
2023-03-05T15:12:25.028Z,9.27
2023-03-05T15:14:53.374Z,9.30
2023-03-05T15:17:22.412Z,9.37
2023-03-05T15:19:53.907Z,9.42
2023-03-05T15:22:22.254Z,9.39
2023-03-05T15:24:50.599Z,9.50
2023-03-05T15:27:18.775Z,9.67
2023-03-05T15:29:46.823Z,9.76
2023-03-05T15:32:14.975Z,9.94
2023-03-05T15:34:43.584Z,9.92
2023-03-05T15:37:13.462Z,10.06
2023-03-05T15:39:41.710Z,10.18
2023-03-05T15:42:09.954Z,10.12
2023-03-05T15:44:40.070Z,10.22
2023-03-05T15:47:08.063Z,10.11
2023-03-05T15:49:36.263Z,10.07
2023-03-05T15:52:04.559Z,9.97
2023-03-05T15:54:36.377Z,9.88
2023-03-05T15:57:04.702Z,9.78
2023-03-05T15:59:32.733Z,9.71
2023-03-05T16:02:01.868Z,9.68
2023-03-05T16:04:30.851Z,9.63
2023-03-05T16:07:00.571Z,9.61
2023-03-05T16:09:31.496Z,9.42
2023-03-05T16:12:01.994Z,9.41
2023-03-05T16:14:30.722Z,9.40
2023-03-05T16:17:00.466Z,9.45
2023-03-05T16:19:29.180Z,9.45
2023-03-05T16:21:57.260Z,9.45
2023-03-05T16:24:25.505Z,9.42
2023-03-05T16:26:53.687Z,9.45
2023-03-05T16:29:23.305Z,9.41
2023-03-05T16:31:51.559Z,9.45
2023-03-05T16:34:20.289Z,9.32
2023-03-05T16:36:50.998Z,9.30
2023-03-05T16:39:19.650Z,9.24
2023-03-05T16:41:47.926Z,9.14
2023-03-05T16:44:16.153Z,8.98
2023-03-05T16:46:49.377Z,8.88
2023-03-05T16:49:17.967Z,8.79
2023-03-05T16:51:46.769Z,8.66
2023-03-05T16:54:14.950Z,8.45
2023-03-05T16:56:43.375Z,8.39
2023-03-05T16:59:11.781Z,8.29
2023-03-05T17:01:40.117Z,8.27
2023-03-05T17:04:09.838Z,8.16
2023-03-05T17:06:38.478Z,8.06
2023-03-05T17:09:06.641Z,8.05
2023-03-05T17:11:34.646Z,8.00
2023-03-05T17:14:04.067Z,8.05
2023-03-05T17:16:32.498Z,7.78
2023-03-05T17:19:00.980Z,7.97
2023-03-05T17:21:30.817Z,7.97
2023-03-05T17:23:59.372Z,8.05
2023-03-05T17:26:27.547Z,8.03
2023-03-05T17:28:55.643Z,8.01
2023-03-05T17:31:23.815Z,7.96
2023-03-05T17:33:52.257Z,7.95
2023-03-05T17:36:24.163Z,7.88
2023-03-05T17:38:57.001Z,7.72
2023-03-05T17:41:26.380Z,7.68
2023-03-05T17:43:54.841Z,7.58
2023-03-05T17:46:23.157Z,7.63
2023-03-05T17:48:51.221Z,7.53
2023-03-05T17:51:19.298Z,7.48
2023-03-05T17:53:47.632Z,7.42
2023-03-05T17:56:21.377Z,7.38
2023-03-05T17:58:50.419Z,7.35
2023-03-05T18:01:25.725Z,7.28
2023-03-05T18:03:53.908Z,7.18
2023-03-05T18:06:23.439Z,7.16
2023-03-05T18:08:52.252Z,7.11
2023-03-05T18:11:22.626Z,7.06
2023-03-05T18:13:51.306Z,7.05
2023-03-05T18:16:19.362Z,6.99
2023-03-05T18:18:47.770Z,6.97
2023-03-05T18:21:20.176Z,6.89
2023-03-05T18:23:54.307Z,6.87
2023-03-05T18:26:25.188Z,6.84
2023-03-05T18:28:53.270Z,6.80
2023-03-05T18:31:21.367Z,6.73
2023-03-05T18:33:50.425Z,6.77
2023-03-05T18:36:18.997Z,6.73
2023-03-05T18:38:47.109Z,6.69
2023-03-05T18:41:19.461Z,6.69
2023-03-05T18:43:49.014Z,6.64
2023-03-05T18:46:17.487Z,6.64
2023-03-05T18:48:45.667Z,6.64
2023-03-05T18:51:15.296Z,6.63
2023-03-05T18:53:43.394Z,6.58
2023-03-05T18:56:11.596Z,6.60
2023-03-05T18:58:39.784Z,6.59
2023-03-05T19:01:09.555Z,6.57
2023-03-05T19:03:37.854Z,6.56
2023-03-05T19:06:06.863Z,6.47
2023-03-05T19:08:35.606Z,6.42
2023-03-05T19:11:04.237Z,6.40
2023-03-05T19:13:36.114Z,6.40
2023-03-05T19:16:10.354Z,6.37
2023-03-05T19:18:44.006Z,6.35
2023-03-05T19:21:12.268Z,6.29
2023-03-05T19:23:40.340Z,6.25
2023-03-05T19:26:08.401Z,6.25
2023-03-05T19:28:36.921Z,6.26
2023-03-05T19:31:05.108Z,6.19
2023-03-05T19:33:37.479Z,6.19
2023-03-05T19:36:08.655Z,6.22
2023-03-05T19:38:36.941Z,6.18
2023-03-05T19:41:05.379Z,6.20
2023-03-05T19:43:33.911Z,6.11
2023-03-05T19:46:02.191Z,6.15
2023-03-05T19:48:31.433Z,6.09
2023-03-05T19:51:00.809Z,6.12
2023-03-05T19:53:28.847Z,6.14
2023-03-05T19:55:57.061Z,6.14
2023-03-05T19:58:25.150Z,6.15
2023-03-05T20:00:53.657Z,6.08
2023-03-05T20:03:22.202Z,6.11
2023-03-05T20:05:50.488Z,6.10
2023-03-05T20:08:20.088Z,6.03
2023-03-05T20:10:48.380Z,6.03
2023-03-05T20:13:17.204Z,6.02
2023-03-05T20:15:47.297Z,6.00
2023-03-05T20:18:16.571Z,5.98
2023-03-05T20:20:46.061Z,5.94
2023-03-05T20:23:15.965Z,5.93
2023-03-05T20:25:47.041Z,5.92
2023-03-05T20:28:16.347Z,5.87
2023-03-05T20:30:45.018Z,5.85
2023-03-05T20:33:13.393Z,5.80
2023-03-05T20:35:41.417Z,5.82
2023-03-05T20:38:20.967Z,5.83
2023-03-05T20:40:51.963Z,5.81
2023-03-05T20:43:20.757Z,5.80
2023-03-05T20:45:50.047Z,5.80
2023-03-05T20:48:18.492Z,5.80
2023-03-05T20:50:47.341Z,5.78
2023-03-05T20:53:15.909Z,5.78
2023-03-05T20:55:44.226Z,5.76
2023-03-05T20:58:13.967Z,5.74
2023-03-05T21:00:42.855Z,5.74
2023-03-05T21:03:11.016Z,5.70
2023-03-05T21:05:39.168Z,5.64
2023-03-05T21:08:07.283Z,5.67
2023-03-05T21:10:35.429Z,5.66
2023-03-05T21:13:03.500Z,5.62
2023-03-05T21:15:33.286Z,5.63
2023-03-05T21:18:02.431Z,5.58
2023-03-05T21:20:31.175Z,5.61
2023-03-05T21:22:59.657Z,5.54
2023-03-05T21:25:29.977Z,5.56
2023-03-05T21:27:59.251Z,5.56
2023-03-05T21:30:31.461Z,5.58
2023-03-05T21:33:01.297Z,5.55
2023-03-05T21:35:29.956Z,5.54
2023-03-05T21:37:58.088Z,5.53
2023-03-05T21:40:26.641Z,5.54
2023-03-05T21:42:55.025Z,5.55
2023-03-05T21:45:24.111Z,5.52
2023-03-05T21:47:52.932Z,5.51
2023-03-05T21:50:22.503Z,5.50
2023-03-05T21:52:50.692Z,5.48
2023-03-05T21:55:19.895Z,5.48
2023-03-05T21:57:48.041Z,5.46
2023-03-05T22:00:18.321Z,5.40
2023-03-05T22:02:48.570Z,5.40
2023-03-05T22:05:18.246Z,5.32
2023-03-05T22:07:50.341Z,5.33
2023-03-05T22:10:22.523Z,5.26
2023-03-05T22:12:56.842Z,5.18
2023-03-05T22:15:28.070Z,5.13
2023-03-05T22:17:56.951Z,5.09
2023-03-05T22:20:25.923Z,5.00
2023-03-05T22:22:55.839Z,4.94
2023-03-05T22:25:27.996Z,4.88
2023-03-05T22:27:57.023Z,4.79
2023-03-05T22:30:25.246Z,4.75
2023-03-05T22:32:53.312Z,4.58
2023-03-05T22:35:21.579Z,4.50
2023-03-05T22:37:49.724Z,4.44
2023-03-05T22:40:20.253Z,4.33
2023-03-05T22:42:49.998Z,4.24
2023-03-05T22:45:18.911Z,4.19
2023-03-05T22:47:48.064Z,4.17
2023-03-05T22:50:16.734Z,4.14
2023-03-05T22:52:44.852Z,4.11
2023-03-05T22:55:13.956Z,4.08
2023-03-05T22:57:42.401Z,4.07
2023-03-05T23:00:14.666Z,4.07
2023-03-05T23:02:43.051Z,4.06
2023-03-05T23:05:11.785Z,4.06
2023-03-05T23:07:40.870Z,4.06
2023-03-05T23:10:10.642Z,4.03
2023-03-05T23:12:40.295Z,4.02
2023-03-05T23:15:09.973Z,3.97
2023-03-05T23:17:39.579Z,3.95
2023-03-05T23:20:11.614Z,3.95
2023-03-05T23:22:40.659Z,3.95
2023-03-05T23:25:09.090Z,4.00
2023-03-05T23:27:37.261Z,4.03
2023-03-05T23:30:16.431Z,4.09
2023-03-05T23:32:47.572Z,4.12
2023-03-05T23:35:17.447Z,4.17
2023-03-05T23:37:45.590Z,4.23
2023-03-05T23:40:16.457Z,4.26
2023-03-05T23:42:44.627Z,4.30
2023-03-05T23:45:14.001Z,4.32
2023-03-05T23:47:42.695Z,4.36
2023-03-05T23:50:14.721Z,4.41
2023-03-05T23:52:43.142Z,4.42
2023-03-05T23:55:15.209Z,4.41
2023-03-05T23:57:43.285Z,4.40
